createdAt,value
2022-12-27T00:00:01.759Z,99077.46
2022-12-27T00:10:09.384Z,99072.27
2022-12-27T00:20:15.766Z,99076.86
2022-12-27T00:30:21.745Z,99087.60
2022-12-27T00:40:27.628Z,99100.52
2022-12-27T00:50:33.519Z,99145.00
2022-12-27T01:00:39.843Z,99155.96
2022-12-27T01:10:45.653Z,99156.73
2022-12-27T01:20:51.953Z,99154.77
2022-12-27T01:30:58.064Z,99155.30
2022-12-27T01:41:24.086Z,99148.77
2022-12-27T01:51:29.949Z,99134.54
2022-12-27T02:01:40.993Z,99140.40
2022-12-27T02:11:52.831Z,99145.91
2022-12-27T02:22:55.451Z,99159.63
2022-12-27T02:33:06.033Z,99168.92
2022-12-27T02:43:30.560Z,99176.74
2022-12-27T02:53:48.184Z,99207.08
2022-12-27T03:04:09.991Z,99254.13
2022-12-27T03:14:41.687Z,99296.09
2022-12-27T03:25:06.087Z,99305.69
2022-12-27T03:35:18.553Z,99300.48
2022-12-27T03:45:44.791Z,99330.86
2022-12-27T03:55:51.024Z,99376.13
2022-12-27T04:05:56.857Z,99405.96
2022-12-27T04:16:20.492Z,99430.13
2022-12-27T04:26:44.379Z,99450.25
2022-12-27T04:36:50.386Z,99467.30
2022-12-27T04:47:13.954Z,99471.27
2022-12-27T04:57:19.886Z,99480.30
2022-12-27T05:07:43.516Z,99500.27
2022-12-27T05:17:49.626Z,99512.02
2022-12-27T05:27:55.642Z,99515.53
2022-12-27T05:38:01.859Z,99523.85
2022-12-27T05:48:08.587Z,99541.42
2022-12-27T05:58:14.385Z,99552.88
2022-12-27T06:08:20.431Z,99569.64
2022-12-27T06:18:26.352Z,99591.90
2022-12-27T06:28:32.403Z,99614.73
2022-12-27T06:38:39.036Z,99625.93
2022-12-27T06:48:45.336Z,99646.77
2022-12-27T06:58:52.473Z,99666.56
2022-12-27T07:08:57.353Z,99685.45
2022-12-27T07:19:03.361Z,99688.59
2022-12-27T07:29:09.337Z,99700.39
2022-12-27T07:39:15.671Z,99709.84
2022-12-27T07:49:21.622Z,99726.02
2022-12-27T07:59:27.764Z,99742.70
2022-12-27T08:09:37.871Z,99751.10
2022-12-27T08:19:43.867Z,99770.59
2022-12-27T08:29:49.643Z,99784.96
2022-12-27T08:40:00.893Z,99795.83
2022-12-27T08:50:10.421Z,99811.13
2022-12-27T09:00:17.948Z,99827.84
2022-12-27T09:10:25.381Z,99850.17
2022-12-27T09:20:31.663Z,99866.46
2022-12-27T09:30:37.595Z,99884.27
2022-12-27T09:40:52.130Z,99898.73
2022-12-27T09:51:01.469Z,99891.27
2022-12-27T10:01:19.915Z,99890.20
2022-12-27T10:11:37.732Z,99894.20
2022-12-27T10:21:57.682Z,99891.25
2022-12-27T10:32:04.103Z,99904.91
2022-12-27T10:42:25.615Z,99907.05
2022-12-27T10:52:35.684Z,99896.29
2022-12-27T11:02:52.153Z,99898.42
2022-12-27T11:13:03.720Z,99901.88
2022-12-27T11:23:16.558Z,99899.83
2022-12-27T11:33:25.472Z,99901.73
2022-12-27T11:43:34.809Z,99903.33
2022-12-27T11:54:11.529Z,99903.16
2022-12-27T12:04:39.675Z,99906.80
2022-12-27T12:15:03.089Z,99910.19
2022-12-27T12:25:38.061Z,99915.76
2022-12-27T12:36:09.217Z,99925.05
2022-12-27T12:46:27.438Z,99920.88
2022-12-27T12:56:48.510Z,99926.88
2022-12-27T13:07:12.668Z,99921.42
2022-12-27T13:17:26.368Z,99914.48
2022-12-27T13:27:40.231Z,99908.98
2022-12-27T13:38:04.780Z,99913.13
2022-12-27T13:48:37.698Z,99930.49
2022-12-27T13:59:06.988Z,99949.63
2022-12-27T14:09:41.482Z,99955.73
2022-12-27T14:20:08.039Z,99966.11
2022-12-27T14:30:33.077Z,99973.91
2022-12-27T14:40:56.622Z,99987.67
2022-12-27T15:02:17.474Z,100010.52
2022-12-27T15:12:35.854Z,100013.89
2022-12-27T15:22:53.699Z,100018.52
2022-12-27T15:33:06.508Z,100019.66
2022-12-27T15:43:28.333Z,100026.36
2022-12-27T15:53:49.539Z,100031.14
2022-12-27T16:03:58.535Z,100035.27
2022-12-27T16:14:29.559Z,100034.58
2022-12-27T16:24:36.397Z,100035.09
2022-12-27T16:34:44.096Z,100037.13
2022-12-27T16:45:03.089Z,100038.48
2022-12-27T16:55:27.713Z,100046.60
2022-12-27T17:05:44.807Z,100053.02
2022-12-27T17:16:07.665Z,100057.92
2022-12-27T17:26:45.623Z,100064.98
2022-12-27T17:37:02.029Z,100074.99
2022-12-27T17:47:19.388Z,100095.52
2022-12-27T17:57:43.035Z,100091.75
2022-12-27T18:08:01.943Z,100090.27
2022-12-27T18:18:10.315Z,100104.11
2022-12-27T18:28:20.036Z,100110.78
2022-12-27T18:38:31.098Z,100129.24
2022-12-27T18:48:38.117Z,100137.63
2022-12-27T18:59:01.951Z,100144.27
2022-12-27T19:09:14.684Z,100143.38
2022-12-27T19:19:25.379Z,100146.33
2022-12-27T19:29:37.941Z,100153.59
2022-12-27T19:39:48.716Z,100166.13
2022-12-27T19:49:54.925Z,100178.48
2022-12-27T20:00:04.101Z,100190.41
2022-12-27T20:10:16.100Z,100196.56
2022-12-27T20:20:22.582Z,100204.11
2022-12-27T20:30:30.555Z,100197.67
2022-12-27T20:40:36.578Z,100198.09
2022-12-27T20:50:42.776Z,100196.64
2022-12-27T21:00:48.753Z,100198.24
2022-12-27T21:10:54.903Z,100202.84
2022-12-27T21:21:05.867Z,100203.30
2022-12-27T21:31:13.162Z,100207.55
2022-12-27T21:41:21.536Z,100213.80
2022-12-27T21:51:29.427Z,100220.22
2022-12-27T22:01:52.051Z,100215.32
2022-12-27T22:12:01.827Z,100211.70
2022-12-27T22:22:08.154Z,100214.95
2022-12-27T22:32:14.643Z,100222.88
2022-12-27T22:42:20.676Z,100228.15
2022-12-27T22:52:26.814Z,100234.42
2022-12-27T23:02:33.015Z,100234.50
2022-12-27T23:12:41.816Z,100229.13
2022-12-27T23:22:48.303Z,100236.06
2022-12-27T23:32:54.332Z,100234.83
2022-12-27T23:43:18.754Z,100235.11
2022-12-27T23:53:26.577Z,100233.20
